createdAt,value
2018-12-03T00:00:14.141Z,95434.44
2018-12-03T00:02:40.144Z,95433.76
2018-12-03T00:05:06.178Z,95429.84
2018-12-03T00:07:32.149Z,95430.09
2018-12-03T00:09:58.113Z,95435.75
2018-12-03T00:12:24.123Z,95439.66
2018-12-03T00:14:50.106Z,95441.50
2018-12-03T00:17:16.087Z,95443.14
2018-12-03T00:19:42.052Z,95444.36
2018-12-03T00:22:08.057Z,95445.11
2018-12-03T00:24:34.032Z,95447.11
2018-12-03T00:27:00.029Z,95455.92
2018-12-03T00:29:26.007Z,95447.61
2018-12-03T00:31:51.996Z,95441.20
2018-12-03T00:34:17.969Z,95445.73
2018-12-03T00:36:43.976Z,95443.95
2018-12-03T00:39:09.957Z,95446.23
2018-12-03T00:41:35.945Z,95445.05
2018-12-03T00:44:01.926Z,95449.80
2018-12-03T00:46:27.921Z,95446.02
2018-12-03T00:48:53.897Z,95441.20
2018-12-03T00:51:19.896Z,95442.52
2018-12-03T00:53:45.882Z,95443.55
2018-12-03T00:56:11.867Z,95439.27
2018-12-03T00:58:37.844Z,95440.02
2018-12-03T01:01:03.851Z,95426.77
2018-12-03T01:03:29.821Z,95440.33
2018-12-03T01:05:55.813Z,95437.27
2018-12-03T01:08:21.802Z,95428.09
2018-12-03T01:10:47.785Z,95433.80
2018-12-03T01:13:13.767Z,95429.92
2018-12-03T01:15:39.771Z,95421.48
2018-12-03T01:18:05.756Z,95411.84
2018-12-03T01:20:31.732Z,95402.98
2018-12-03T01:22:57.714Z,95399.26
2018-12-03T01:25:23.698Z,95397.75
2018-12-03T01:27:49.681Z,95391.41
2018-12-03T01:30:15.682Z,95380.76
2018-12-03T01:32:41.667Z,95383.10
2018-12-03T01:35:07.651Z,95383.31
2018-12-03T01:37:33.642Z,95381.73
2018-12-03T01:39:59.644Z,95374.20
2018-12-03T01:42:25.618Z,95379.70
2018-12-03T01:44:51.614Z,95380.11
2018-12-03T01:47:17.601Z,95385.26
2018-12-03T01:49:43.587Z,95384.64
2018-12-03T01:52:09.561Z,95382.45
2018-12-03T01:54:35.565Z,95384.48
2018-12-03T01:57:01.544Z,95378.38
2018-12-03T01:59:27.534Z,95384.28
2018-12-03T02:01:53.528Z,95381.48
2018-12-03T02:04:19.508Z,95376.38
2018-12-03T02:06:45.497Z,95375.41
2018-12-03T02:09:11.500Z,95375.25
2018-12-03T02:11:37.481Z,95370.38
2018-12-03T02:14:03.467Z,95365.95
2018-12-03T02:16:29.440Z,95366.75
2018-12-03T02:18:55.433Z,95356.16
2018-12-03T02:21:21.405Z,95354.22
2018-12-03T02:23:47.417Z,95353.97
2018-12-03T02:26:13.402Z,95356.11
2018-12-03T02:28:39.404Z,95363.80
2018-12-03T02:31:05.397Z,95358.86
2018-12-03T02:33:31.395Z,95354.16
2018-12-03T02:35:57.382Z,95353.36
2018-12-03T02:38:23.370Z,95347.28
2018-12-03T02:40:49.364Z,95351.77
2018-12-03T02:43:15.342Z,95345.86
2018-12-03T02:45:41.373Z,95346.07
2018-12-03T02:48:07.373Z,95346.42
2018-12-03T02:50:33.365Z,95347.95
2018-12-03T02:52:59.350Z,95349.12
2018-12-03T02:55:25.344Z,95343.27
2018-12-03T02:57:51.324Z,95337.20
2018-12-03T03:00:17.317Z,95330.67
2018-12-03T03:02:43.298Z,95331.51
2018-12-03T03:05:09.281Z,95337.41
2018-12-03T03:07:35.275Z,95341.67
2018-12-03T03:10:01.266Z,95332.83
2018-12-03T03:12:27.247Z,95343.11
2018-12-03T03:14:53.212Z,95337.55
2018-12-03T03:17:19.258Z,95332.61
2018-12-03T03:19:45.225Z,95332.67
2018-12-03T03:22:11.231Z,95336.13
2018-12-03T03:24:37.225Z,95338.17
2018-12-03T03:27:03.214Z,95342.59
2018-12-03T03:29:29.187Z,95340.86
2018-12-03T03:31:55.203Z,95341.89
2018-12-03T03:34:21.228Z,95347.18
2018-12-03T03:36:47.217Z,95346.52
2018-12-03T03:39:13.201Z,95355.30
2018-12-03T03:41:39.197Z,95344.37
2018-12-03T03:44:05.179Z,95352.67
2018-12-03T03:46:31.189Z,95358.17
2018-12-03T03:48:57.220Z,95362.66
2018-12-03T03:51:23.193Z,95360.52
2018-12-03T03:53:49.174Z,95363.68
2018-12-03T03:56:15.195Z,95368.53
2018-12-03T03:58:41.170Z,95367.56
2018-12-03T04:01:07.179Z,95362.06
2018-12-03T04:03:33.170Z,95361.66
2018-12-03T04:05:59.154Z,95364.59
2018-12-03T04:08:25.125Z,95355.94
2018-12-03T04:10:51.123Z,95358.34
2018-12-03T04:13:17.102Z,95359.95
2018-12-03T04:15:43.083Z,95359.25
2018-12-03T04:18:09.078Z,95360.81
2018-12-03T04:20:35.069Z,95364.81
2018-12-03T04:23:01.038Z,95364.59
2018-12-03T04:25:27.040Z,95369.53
2018-12-03T04:27:53.103Z,95365.00
2018-12-03T04:30:19.051Z,95371.22
2018-12-03T04:32:45.004Z,95367.34
2018-12-03T04:35:11.000Z,95372.44
2018-12-03T04:37:36.980Z,95372.22
2018-12-03T04:40:02.980Z,95377.38
2018-12-03T04:42:28.967Z,95377.78
2018-12-03T04:44:54.951Z,95376.72
2018-12-03T04:47:20.946Z,95375.19
2018-12-03T04:49:46.941Z,95376.51
2018-12-03T04:52:12.928Z,95376.00
2018-12-03T04:54:38.952Z,95366.48
2018-12-03T04:57:04.956Z,95373.41
2018-12-03T04:59:30.943Z,95371.01
2018-12-03T05:01:56.919Z,95366.72
2018-12-03T05:04:22.909Z,95363.11
2018-12-03T05:06:48.900Z,95361.38
2018-12-03T05:09:14.878Z,95362.91
2018-12-03T05:11:40.856Z,95362.70
2018-12-03T05:14:06.848Z,95359.60
2018-12-03T05:16:32.827Z,95353.13
2018-12-03T05:18:58.837Z,95358.23
2018-12-03T05:21:24.825Z,95364.13
2018-12-03T05:23:50.841Z,95369.17
2018-12-03T05:26:16.821Z,95369.80
2018-12-03T05:28:42.821Z,95369.33
2018-12-03T05:31:08.802Z,95362.08
2018-12-03T05:33:34.782Z,95357.61
2018-12-03T05:36:00.771Z,95363.77
2018-12-03T05:38:26.758Z,95365.61
2018-12-03T05:40:52.750Z,95371.77
2018-12-03T05:43:18.747Z,95371.70
2018-12-03T05:45:44.736Z,95361.73
2018-12-03T05:48:10.708Z,95362.08
2018-12-03T05:50:36.686Z,95365.95
2018-12-03T05:53:02.703Z,95361.97
2018-12-03T05:55:28.690Z,95370.48
2018-12-03T05:57:54.697Z,95371.75
2018-12-03T06:00:20.686Z,95374.03
2018-12-03T06:02:46.667Z,95370.27
2018-12-03T06:05:12.751Z,95370.05
2018-12-03T06:07:38.789Z,95366.95
2018-12-03T06:10:04.733Z,95361.20
2018-12-03T06:12:30.724Z,95362.23
2018-12-03T06:14:56.725Z,95357.32
2018-12-03T06:17:22.718Z,95356.11
2018-12-03T06:19:48.736Z,95351.83
2018-12-03T06:22:14.745Z,95359.16
2018-12-03T06:24:40.742Z,95348.78
2018-12-03T06:27:06.790Z,95353.98
2018-12-03T06:29:32.757Z,95345.41
2018-12-03T06:31:58.770Z,95350.91
2018-12-03T06:34:24.774Z,95348.38
2018-12-03T06:36:50.782Z,95352.40
2018-12-03T06:39:16.784Z,95353.98
2018-12-03T06:41:42.826Z,95353.98
2018-12-03T06:44:08.830Z,95355.20
2018-12-03T06:46:34.832Z,95352.83
2018-12-03T06:49:00.822Z,95365.20
2018-12-03T06:51:26.813Z,95358.73
2018-12-03T06:53:52.931Z,95354.20
2018-12-03T06:56:18.918Z,95354.20
2018-12-03T06:58:44.967Z,95354.66
2018-12-03T07:01:10.951Z,95357.20
2018-12-03T07:03:36.946Z,95354.80
2018-12-03T07:06:02.936Z,95353.66
2018-12-03T07:08:28.900Z,95356.56
2018-12-03T07:10:54.901Z,95353.61
2018-12-03T07:13:20.895Z,95355.36
2018-12-03T07:15:46.901Z,95354.63
2018-12-03T07:18:12.937Z,95354.44
2018-12-03T07:20:38.924Z,95361.89
2018-12-03T07:23:04.909Z,95361.27
2018-12-03T07:25:30.917Z,95357.70
2018-12-03T07:27:56.923Z,95356.17
2018-12-03T07:30:22.911Z,95357.95
2018-12-03T07:32:48.895Z,95352.61
2018-12-03T07:35:14.881Z,95351.23
2018-12-03T07:37:40.861Z,95355.41
2018-12-03T07:40:06.873Z,95354.39
2018-12-03T07:42:32.883Z,95355.25
2018-12-03T07:44:58.883Z,95355.30
2018-12-03T07:47:24.871Z,95362.40
2018-12-03T07:49:50.869Z,95362.02
2018-12-03T07:52:16.853Z,95359.78
2018-12-03T07:54:42.854Z,95363.72
2018-12-03T07:57:08.829Z,95364.77
2018-12-03T07:59:34.865Z,95356.56
2018-12-03T08:02:00.900Z,95365.34
2018-12-03T08:04:26.864Z,95375.13
2018-12-03T08:06:52.858Z,95371.12
2018-12-03T08:09:18.878Z,95368.95
2018-12-03T08:11:44.866Z,95370.05
2018-12-03T08:14:10.857Z,95367.78
2018-12-03T08:16:36.901Z,95363.84
2018-12-03T08:19:02.873Z,95355.41
2018-12-03T08:21:28.961Z,95352.39
2018-12-03T08:23:54.943Z,95346.83
2018-12-03T08:26:20.940Z,95341.23
2018-12-03T08:28:46.936Z,95352.23
2018-12-03T08:31:12.937Z,95356.36
2018-12-03T08:33:38.951Z,95340.02
2018-12-03T08:36:04.936Z,95339.27
2018-12-03T08:38:30.924Z,95345.00
2018-12-03T08:40:56.931Z,95356.06
2018-12-03T08:43:22.892Z,95349.92
2018-12-03T08:45:48.889Z,95348.59
2018-12-03T08:48:14.874Z,95350.62
2018-12-03T08:50:40.863Z,95345.69
2018-12-03T08:53:06.872Z,95340.69
2018-12-03T08:55:32.875Z,95340.02
2018-12-03T08:57:58.839Z,95336.67
2018-12-03T09:00:24.829Z,95332.80
2018-12-03T09:02:50.817Z,95337.27
2018-12-03T09:05:16.813Z,95333.36
2018-12-03T09:07:42.797Z,95321.14
2018-12-03T09:10:08.829Z,95326.70
2018-12-03T09:12:34.808Z,95319.96
2018-12-03T09:15:00.812Z,95318.08
2018-12-03T09:17:26.826Z,95312.90
2018-12-03T09:19:52.823Z,95319.80
2018-12-03T09:22:18.800Z,95318.58
2018-12-03T09:24:44.781Z,95313.55
2018-12-03T09:27:10.780Z,95317.05
2018-12-03T09:29:36.757Z,95298.61
2018-12-03T09:32:02.754Z,95296.02
2018-12-03T09:34:28.737Z,95297.34
2018-12-03T09:36:54.708Z,95296.98
2018-12-03T09:39:20.769Z,95292.86
2018-12-03T09:41:46.769Z,95292.92
2018-12-03T09:44:12.767Z,95282.89
2018-12-03T09:46:38.753Z,95283.80
2018-12-03T09:49:04.763Z,95274.59
2018-12-03T09:51:30.728Z,95272.21
2018-12-03T09:53:56.726Z,95271.03
2018-12-03T09:56:22.722Z,95262.83
2018-12-03T09:58:48.721Z,95264.31
2018-12-03T10:01:14.690Z,95267.47
2018-12-03T10:03:40.680Z,95264.20
2018-12-03T10:06:06.700Z,95267.41
2018-12-03T10:08:32.715Z,95265.84
2018-12-03T10:10:58.726Z,95262.53
2018-12-03T10:13:24.726Z,95261.91
2018-12-03T10:15:50.695Z,95257.89
2018-12-03T10:18:16.704Z,95256.27
2018-12-03T10:20:42.685Z,95253.92
2018-12-03T10:23:08.674Z,95251.38
2018-12-03T10:25:34.649Z,95254.73
2018-12-03T10:28:00.650Z,95249.64
2018-12-03T10:30:26.682Z,95252.61
2018-12-03T10:32:52.788Z,95242.25
2018-12-03T10:35:18.773Z,95251.84
2018-12-03T10:37:44.775Z,95247.34
2018-12-03T10:40:10.741Z,95250.16
2018-12-03T10:42:36.759Z,95247.05
2018-12-03T10:45:02.739Z,95245.88
2018-12-03T10:47:28.718Z,95246.50
2018-12-03T10:49:54.745Z,95239.87
2018-12-03T10:52:20.738Z,95239.16
2018-12-03T10:54:46.713Z,95237.17
2018-12-03T10:57:12.704Z,95233.66
2018-12-03T10:59:38.689Z,95234.12
2018-12-03T11:02:04.697Z,95238.30
2018-12-03T11:04:30.664Z,95236.21
2018-12-03T11:06:56.669Z,95228.10
2018-12-03T11:09:22.637Z,95224.13
2018-12-03T11:11:48.631Z,95221.03
2018-12-03T11:14:14.624Z,95225.09
2018-12-03T11:16:40.618Z,95218.62
2018-12-03T11:19:06.595Z,95205.08
2018-12-03T11:21:32.578Z,95210.42
2018-12-03T11:23:58.572Z,95205.89
2018-12-03T11:26:24.551Z,95205.42
2018-12-03T11:28:50.541Z,95203.85
2018-12-03T11:31:16.543Z,95198.65
2018-12-03T11:33:42.519Z,95191.20
2018-12-03T11:36:08.501Z,95187.23
2018-12-03T11:38:34.494Z,95177.50
2018-12-03T11:41:00.497Z,95181.22
2018-12-03T11:43:26.470Z,95178.47
2018-12-03T11:45:52.470Z,95175.91
2018-12-03T11:48:18.465Z,95170.52
2018-12-03T11:50:44.557Z,95176.95
2018-12-03T11:53:10.580Z,95172.16
2018-12-03T11:55:36.582Z,95168.78
2018-12-03T11:58:02.549Z,95164.45
2018-12-03T12:00:28.576Z,95172.91
2018-12-03T12:02:54.607Z,95176.48
2018-12-03T12:05:20.582Z,95167.58
2018-12-03T12:07:46.600Z,95173.27
2018-12-03T12:10:12.600Z,95174.13
2018-12-03T12:12:38.575Z,95164.35
2018-12-03T12:15:04.570Z,95157.73
2018-12-03T12:17:30.542Z,95161.20
2018-12-03T12:19:56.532Z,95154.41
2018-12-03T12:22:22.503Z,95156.52
2018-12-03T12:24:48.530Z,95157.84
2018-12-03T12:27:14.619Z,95149.77
2018-12-03T12:29:40.608Z,95151.71
2018-12-03T12:32:06.605Z,95148.91
2018-12-03T12:34:32.597Z,95143.22
2018-12-03T12:36:58.570Z,95146.94
2018-12-03T12:39:24.561Z,95150.74
2018-12-03T12:41:50.749Z,95143.05
2018-12-03T12:44:16.756Z,95139.33
2018-12-03T12:46:42.743Z,95143.63
2018-12-03T12:49:08.740Z,95140.70
2018-12-03T12:51:34.725Z,95136.13
2018-12-03T12:54:00.715Z,95139.49
2018-12-03T12:56:26.698Z,95139.89
2018-12-03T12:58:52.701Z,95135.16
2018-12-03T13:01:18.685Z,95131.19
2018-12-03T13:03:44.756Z,95138.27
2018-12-03T13:06:10.745Z,95138.83
2018-12-03T13:08:36.741Z,95143.88
2018-12-03T13:11:02.733Z,95137.62
2018-12-03T13:13:28.719Z,95149.88
2018-12-03T13:15:54.714Z,95146.48
2018-12-03T13:18:20.753Z,95139.66
2018-12-03T13:20:46.718Z,95140.63
2018-12-03T13:23:12.760Z,95135.32
2018-12-03T13:25:38.736Z,95133.30
2018-12-03T13:28:04.893Z,95129.58
2018-12-03T13:30:33.896Z,95124.27
2018-12-03T13:33:00.157Z,95127.34
2018-12-03T13:35:26.127Z,95121.94
2018-12-03T13:37:52.116Z,95124.64
2018-12-03T13:40:18.110Z,95120.14
2018-12-03T13:42:44.179Z,95121.11
2018-12-03T13:45:10.181Z,95117.34
2018-12-03T13:47:36.182Z,95114.45
2018-12-03T13:50:02.151Z,95114.45
2018-12-03T13:52:28.130Z,95120.88
2018-12-03T13:54:54.158Z,95112.97
2018-12-03T13:57:20.162Z,95112.41
2018-12-03T13:59:46.136Z,95120.09
2018-12-03T14:02:12.145Z,95117.50
2018-12-03T14:04:38.131Z,95114.91
2018-12-03T14:07:04.142Z,95123.01
2018-12-03T14:09:30.137Z,95121.34
2018-12-03T14:11:56.176Z,95119.80
2018-12-03T14:14:22.151Z,95118.59
2018-12-03T14:17:05.656Z,95117.66
2018-12-03T14:19:31.653Z,95113.49
2018-12-03T14:21:57.675Z,95112.27
2018-12-03T14:24:23.679Z,95110.17
2018-12-03T14:26:49.680Z,95108.59
2018-12-03T14:29:15.657Z,95109.92
2018-12-03T14:31:41.637Z,95112.52
2018-12-03T14:34:07.631Z,95109.37
2018-12-03T14:36:33.686Z,95106.41
2018-12-03T14:38:59.660Z,95104.22
2018-12-03T14:41:25.649Z,95111.30
2018-12-03T14:43:51.626Z,95104.41
2018-12-03T14:46:17.617Z,95109.11
2018-12-03T14:48:43.656Z,95101.31
2018-12-03T14:51:09.649Z,95101.62
2018-12-03T14:53:35.621Z,95109.87
2018-12-03T14:56:01.643Z,95108.91
2018-12-03T14:58:27.641Z,95107.33
2018-12-03T15:00:53.639Z,95105.34
2018-12-03T15:03:19.627Z,95109.67
2018-12-03T15:05:45.655Z,95101.52
2018-12-03T15:08:11.631Z,95107.84
2018-12-03T15:10:37.612Z,95116.41
2018-12-03T15:13:03.605Z,95120.67
2018-12-03T15:15:29.603Z,95121.09
2018-12-03T15:17:55.576Z,95123.13
2018-12-03T15:20:21.565Z,95122.31
2018-12-03T15:22:47.548Z,95121.50
2018-12-03T15:25:13.531Z,95123.13
2018-12-03T15:27:39.521Z,95125.32
2018-12-03T15:30:05.553Z,95124.04
2018-12-03T15:32:31.530Z,95130.72
2018-12-03T15:34:57.517Z,95127.05
2018-12-03T15:37:23.515Z,95124.50
2018-12-03T15:39:49.500Z,95130.16
2018-12-03T15:42:15.583Z,95128.83
2018-12-03T15:44:41.634Z,95128.33
2018-12-03T15:47:07.594Z,95137.44
2018-12-03T15:49:33.605Z,95127.41
2018-12-03T15:51:59.592Z,95133.67
2018-12-03T15:54:25.594Z,95126.23
2018-12-03T15:56:51.576Z,95132.75
2018-12-03T15:59:17.620Z,95131.22
2018-12-03T16:01:43.598Z,95126.17
2018-12-03T16:04:09.704Z,95136.98
2018-12-03T16:06:35.877Z,95137.44
2018-12-03T16:09:01.876Z,95131.94
2018-12-03T16:11:27.845Z,95134.58
2018-12-03T16:13:53.866Z,95138.91
2018-12-03T16:16:19.852Z,95142.98
2018-12-03T16:18:45.841Z,95137.89
2018-12-03T16:21:11.851Z,95149.97
2018-12-03T16:23:38.111Z,95142.92
2018-12-03T16:26:04.083Z,95143.80
2018-12-03T16:28:30.068Z,95144.58
2018-12-03T16:30:56.070Z,95146.30
2018-12-03T16:33:22.070Z,95143.30
2018-12-03T16:35:48.042Z,95147.17
2018-12-03T16:38:14.035Z,95147.89
2018-12-03T16:40:40.010Z,95153.03
2018-12-03T16:43:06.018Z,95151.80
2018-12-03T16:45:31.998Z,95149.87
2018-12-03T16:47:57.995Z,95148.66
2018-12-03T16:50:23.957Z,95153.23
2018-12-03T16:52:49.947Z,95152.83
2018-12-03T16:55:15.931Z,95160.45
2018-12-03T16:57:41.925Z,95152.15
2018-12-03T17:00:07.946Z,95149.25
2018-12-03T17:02:33.976Z,95148.73
2018-12-03T17:04:59.943Z,95151.44
2018-12-03T17:07:25.953Z,95148.92
2018-12-03T17:09:51.963Z,95149.66
2018-12-03T17:12:18.209Z,95153.83
2018-12-03T17:14:44.188Z,95155.35
2018-12-03T17:17:10.389Z,95152.20
2018-12-03T17:19:36.381Z,95157.07
2018-12-03T17:22:04.471Z,95152.44
2018-12-03T17:24:30.429Z,95159.72
2018-12-03T17:26:56.422Z,95157.62
2018-12-03T17:29:22.400Z,95158.30
2018-12-03T17:31:48.394Z,95162.00
2018-12-03T17:34:14.444Z,95157.77
2018-12-03T17:36:40.421Z,95153.99
2018-12-03T17:39:06.415Z,95157.47
2018-12-03T17:41:32.427Z,95159.09
2018-12-03T17:43:58.563Z,95159.30
2018-12-03T17:46:24.567Z,95160.47
2018-12-03T17:48:50.548Z,95147.68
2018-12-03T17:51:16.560Z,95154.09
2018-12-03T17:53:42.528Z,95146.05
2018-12-03T17:56:08.585Z,95142.27
2018-12-03T17:58:34.567Z,95141.16
2018-12-03T18:01:00.560Z,95141.06
2018-12-03T18:03:26.593Z,95138.36
2018-12-03T18:05:52.594Z,95143.81
2018-12-03T18:08:18.560Z,95141.66
2018-12-03T18:10:44.551Z,95138.36
2018-12-03T18:13:10.540Z,95137.38
2018-12-03T18:15:36.532Z,95131.77
2018-12-03T18:18:02.529Z,95134.27
2018-12-03T18:20:28.630Z,95127.75
2018-12-03T18:22:54.612Z,95123.27
2018-12-03T18:25:20.597Z,95120.35
2018-12-03T18:27:46.605Z,95122.86
2018-12-03T18:30:12.578Z,95122.25
2018-12-03T18:32:38.575Z,95121.89
2018-12-03T18:35:04.547Z,95118.27
2018-12-03T18:37:30.624Z,95122.03
2018-12-03T18:39:56.614Z,95122.03
2018-12-03T18:42:22.615Z,95120.02
2018-12-03T18:44:48.597Z,95128.02
2018-12-03T18:47:14.651Z,95130.10
2018-12-03T18:49:40.659Z,95128.80
2018-12-03T18:52:06.649Z,95134.25
2018-12-03T18:54:32.668Z,95129.98
2018-12-03T18:56:58.657Z,95131.05
2018-12-03T18:59:24.635Z,95123.36
2018-12-03T19:01:50.633Z,95130.19
2018-12-03T19:04:16.620Z,95127.44
2018-12-03T19:06:42.609Z,95130.05
2018-12-03T19:09:08.592Z,95130.19
2018-12-03T19:11:34.597Z,95131.28
2018-12-03T19:14:00.570Z,95132.84
2018-12-03T19:16:26.578Z,95140.28
2018-12-03T19:18:52.552Z,95130.26
2018-12-03T19:21:18.543Z,95132.66
2018-12-03T19:23:44.513Z,95134.03
2018-12-03T19:26:10.521Z,95127.95
2018-12-03T19:28:36.542Z,95131.78
2018-12-03T19:31:02.670Z,95128.16
2018-12-03T19:33:28.658Z,95124.88
2018-12-03T19:35:54.677Z,95130.14
2018-12-03T19:38:20.653Z,95128.09
2018-12-03T19:40:46.662Z,95125.33
2018-12-03T19:43:12.657Z,95125.95
2018-12-03T19:45:38.666Z,95127.33
2018-12-03T19:48:04.654Z,95133.69
2018-12-03T19:50:30.659Z,95127.26
2018-12-03T19:52:56.692Z,95127.02
2018-12-03T19:55:22.630Z,95122.73
2018-12-03T19:57:48.660Z,95118.86
2018-12-03T20:00:14.632Z,95114.73
2018-12-03T20:02:40.619Z,95118.86
2018-12-03T20:05:06.604Z,95118.86
2018-12-03T20:07:32.604Z,95116.32
2018-12-03T20:09:58.679Z,95125.23
2018-12-03T20:12:24.661Z,95114.54
2018-12-03T20:14:50.645Z,95113.62
2018-12-03T20:17:16.621Z,95106.80
2018-12-03T20:19:44.606Z,95109.04
2018-12-03T20:22:10.585Z,95105.98
2018-12-03T20:24:36.610Z,95105.02
2018-12-03T20:27:02.577Z,95099.93
2018-12-03T20:29:28.581Z,95092.84
2018-12-03T20:31:54.559Z,95098.61
2018-12-03T20:34:20.559Z,95096.26
2018-12-03T20:36:46.557Z,95087.60
2018-12-03T20:39:12.567Z,95088.58
2018-12-03T20:41:38.538Z,95084.80
2018-12-03T20:44:04.549Z,95082.67
2018-12-03T20:46:30.536Z,95080.32
2018-12-03T20:48:57.797Z,95077.33
2018-12-03T20:51:23.771Z,95075.58
2018-12-03T20:53:49.756Z,95081.12
2018-12-03T20:56:15.772Z,95080.84
2018-12-03T20:58:41.791Z,95081.86
2018-12-03T21:01:07.799Z,95086.75
2018-12-03T21:03:33.788Z,95084.11
2018-12-03T21:05:59.755Z,95084.92
2018-12-03T21:08:25.756Z,95093.01
2018-12-03T21:10:51.799Z,95096.21
2018-12-03T21:13:17.804Z,95091.08
2018-12-03T21:15:43.788Z,95090.00
2018-12-03T21:18:09.776Z,95088.62
2018-12-03T21:20:35.767Z,95089.64
2018-12-03T21:23:01.780Z,95102.06
2018-12-03T21:25:27.771Z,95099.20
2018-12-03T21:27:53.784Z,95104.45
2018-12-03T21:30:19.765Z,95102.47
2018-12-03T21:32:45.742Z,95094.42
2018-12-03T21:35:11.750Z,95099.55
2018-12-03T21:37:37.744Z,95102.27
2018-12-03T21:40:03.728Z,95098.86
2018-12-03T21:42:29.714Z,95101.92
2018-12-03T21:44:55.691Z,95097.95
2018-12-03T21:47:21.681Z,95094.19
2018-12-03T21:49:47.652Z,95094.91
2018-12-03T21:52:13.684Z,95087.41
2018-12-03T21:54:39.669Z,95088.19
2018-12-03T21:57:10.659Z,95087.86
2018-12-03T21:59:31.623Z,95081.77
2018-12-03T22:01:57.616Z,95082.58
2018-12-03T22:04:23.602Z,95074.53
2018-12-03T22:06:49.591Z,95070.60
2018-12-03T22:09:15.582Z,95061.13
2018-12-03T22:11:41.566Z,95064.34
2018-12-03T22:14:07.541Z,95063.77
2018-12-03T22:16:33.554Z,95059.23
2018-12-03T22:18:59.528Z,95057.25
2018-12-03T22:21:25.552Z,95055.47
2018-12-03T22:23:51.528Z,95053.48
2018-12-03T22:26:17.519Z,95055.78
2018-12-03T22:28:43.534Z,95056.96
2018-12-03T22:31:09.536Z,95051.70
2018-12-03T22:33:35.525Z,95050.73
2018-12-03T22:36:01.512Z,95047.17
2018-12-03T22:38:27.486Z,95044.02
2018-12-03T22:40:53.495Z,95042.28
2018-12-03T22:43:19.479Z,95043.05
2018-12-03T22:45:45.452Z,95031.64
2018-12-03T22:48:11.443Z,95037.71
2018-12-03T22:50:37.434Z,95035.77
2018-12-03T22:53:03.401Z,95031.12
2018-12-03T22:55:29.397Z,95030.67
2018-12-03T22:57:55.381Z,95027.11
2018-12-03T23:00:21.363Z,95032.30
2018-12-03T23:02:47.337Z,95022.22
2018-12-03T23:05:13.339Z,95021.61
2018-12-03T23:07:39.310Z,95022.94
2018-12-03T23:10:05.312Z,95020.03
2018-12-03T23:12:31.295Z,95019.10
2018-12-03T23:14:57.279Z,95021.61
2018-12-03T23:17:23.289Z,95022.42
2018-12-03T23:19:49.292Z,95023.55
2018-12-03T23:22:15.289Z,95017.03
2018-12-03T23:24:41.308Z,95020.07
2018-12-03T23:27:07.286Z,95014.52
2018-12-03T23:29:33.272Z,95013.72
2018-12-03T23:31:59.258Z,95016.30
2018-12-03T23:34:25.265Z,95015.19
2018-12-03T23:36:51.242Z,95017.53
2018-12-03T23:39:17.293Z,95017.32
2018-12-03T23:41:43.275Z,95006.89
2018-12-03T23:44:09.244Z,95006.94
2018-12-03T23:46:35.262Z,95013.59
2018-12-03T23:49:01.243Z,95003.33
2018-12-03T23:51:27.208Z,95007.70
2018-12-03T23:53:53.212Z,95006.53
2018-12-03T23:56:19.207Z,95004.95
2018-12-03T23:58:45.185Z,95008.67
